Baraka — ZGAE5 — position and weather

sailwx.info

Track history (hours):
 
Tides and Currents Weather Stations Pressure Air Temp Water Temp Dewpoint Dewpoint Depression Visibility Wind Speed Wind Dir Waves Ship Positions

Baraka

Last reported at 2015-Jul-04 17:18 UTC. Time now 2015-Jul-05 02:37 UTC.
Position N 40°35' E 014°27'.

Length 59 m; draft 3.3 m.

Type: Other ship. MMSI: 319015300.

Date/timePositionNaut miles runAvg speedWind from/ knotsBaromVisibWave heightAir tempDewpointWater temp
2015-Jul-04 17:18N 40°35' E 014°27'4 3.3
2015-Jul-04 16:04N 40°35' E 014°22'0 0.0
2015-Jul-04 15:31N 40°35' E 014°22'0 0.0
2015-Jul-04 14:07N 40°35' E 014°22'0 0.0
2015-Jul-04 13:31N 40°35' E 014°22'0 0.0
2015-Jul-04 12:10N 40°35' E 014°22'0 0.0
2015-Jul-04 11:33N 40°35' E 014°22'1 1.1
2015-Jul-04 10:15N 40°34' E 014°21'5 5.3
2015-Jul-04 09:16N 40°32' E 014°14'0 0.0
2015-Jul-04 08:31N 40°32' E 014°14'0 0.0
2015-Jul-04 05:31N 40°32' E 014°14'0 0.0
2015-Jul-04 02:31N 40°32' E 014°14'0 0.0
2015-Jul-04 01:31N 40°32' E 014°14'0 0.0
2015-Jul-04 00:31N 40°32' E 014°14'0 0.0
2015-Jul-03 23:10N 40°32' E 014°14'0 0.0
2015-Jul-03 15:28N 40°32' E 014°14'0 0.0
2015-Jul-03 14:19N 40°32' E 014°14'4 1.1
2015-Jul-03 10:33N 40°35' E 014°18'5 5.0
2015-Jul-03 09:31N 40°38' E 014°23'0 0.0
2015-Jul-03 08:19N 40°38' E 014°23'0 0.0
2015-Jul-03 07:31N 40°38' E 014°23'0 0.0
2015-Jul-03 06:28N 40°38' E 014°23'0 0.0
2015-Jul-03 05:22N 40°38' E 014°23'0 0.0
2015-Jul-03 04:31N 40°38' E 014°23'0 0.0
2015-Jul-03 03:31N 40°38' E 014°23'0 0.0
2015-Jul-03 02:19N 40°38' E 014°23'0 0.0
2015-Jul-03 01:31N 40°38' E 014°23'0 0.0
2015-Jul-03 00:25N 40°38' E 014°23'0 0.0
2015-Jul-02 23:28N 40°38' E 014°23'0 0.0
2015-Jul-02 22:28N 40°38' E 014°23'0 0.0
2015-Jul-02 21:31N 40°38' E 014°23'0 0.0
2015-Jul-02 20:22N 40°38' E 014°23'0 0.0
2015-Jul-02 19:33N 40°38' E 014°23'0 0.0
2015-Jul-02 18:33N 40°38' E 014°23'5 4.5
2015-Jul-02 17:33N 40°42' E 014°20'9 2.7
2015-Jul-02 14:17N 40°50' E 014°14'0 0.0
2015-Jul-02 13:32N 40°50' E 014°14'0 0.0
2015-Jul-02 12:29N 40°50' E 014°14'0 0.0
2015-Jul-02 11:32N 40°50' E 014°14'0 0.0
2015-Jul-01 12:29N 40°50' E 014°14'0 0.0
2015-Jul-01 11:32N 40°50' E 014°14'0 0.0
2015-Jul-01 10:32N 40°50' E 014°14'1 0.0
2015-Jun-29 16:33N 40°49' E 014°15'1010.3
2015-Jun-29 15:33N 40°40' E 014°21'2 1.1
2015-Jun-29 13:28N 40°38' E 014°23'0 0.0
2015-Jun-29 11:04N 40°38' E 014°23'0 0.0
2015-Jun-29 10:25N 40°38' E 014°23'0 0.0
2015-Jun-29 09:22N 40°38' E 014°23'0 0.0
2015-Jun-29 08:19N 40°38' E 014°23'5 6.2
2015-Jun-29 07:28N 40°43' E 014°20'8 7.8
2015-Jun-29 06:30N 40°49' E 014°14'0 0.2
2015-Jun-29 05:33N 40°49' E 014°14'9 9.1
2015-Jun-29 04:33N 40°41' E 014°20'4 3.1
2015-Jun-29 03:19N 40°38' E 014°23'0 0.0
2015-Jun-29 02:31N 40°38' E 014°23'0 0.0
2015-Jun-29 01:31N 40°38' E 014°23'0 0.0
2015-Jun-29 00:16N 40°38' E 014°23'0 0.0
2015-Jun-28 23:31N 40°38' E 014°23'0 0.0
2015-Jun-28 22:31N 40°38' E 014°23'0 0.0
2015-Jun-28 21:25N 40°38' E 014°23'0 0.0
2015-Jun-28 20:25N 40°38' E 014°23'0 0.0
2015-Jun-28 19:31N 40°38' E 014°23'0 0.0
2015-Jun-28 18:28N 40°38' E 014°23'3 3.8
2015-Jun-28 17:33N 40°37' E 014°19'8 7.2
2015-Jun-28 16:27N 40°37' E 014°29'1 0.2
2015-Jun-28 14:14N 40°37' E 014°30'1 0.5
2015-Jun-28 11:20N 40°36' E 014°29'1012.3
2015-Jun-28 10:33N 40°32' E 014°17'2 0.0
2015-Jun-26 11:25N 40°32' E 014°15'7 7.9
2015-Jun-26 10:33N 40°39' E 014°16'1010.0
2015-Jun-26 09:33N 40°49' E 014°15'  
Track history (hours):
 
Tides and Currents Weather Stations Pressure Air Temp Water Temp Dewpoint Dewpoint Depression Visibility Wind Speed Wind Dir Waves Ship Positions

Baraka

Last reported at 2015-Jul-04 17:18 UTC. Time now 2015-Jul-05 02:37 UTC.
Position N 40°35' E 014°27'.

Length 59 m; draft 3.3 m.

Type: Other ship. MMSI: 319015300.

Date/timePositionNaut miles runAvg speedWind from/ knotsBaromVisibWave heightAir tempDewpointWater temp
2015-Jul-04 17:18N 40°35' E 014°27'4 3.3
2015-Jul-04 16:04N 40°35' E 014°22'0 0.0
2015-Jul-04 15:31N 40°35' E 014°22'0 0.0
2015-Jul-04 14:07N 40°35' E 014°22'0 0.0
2015-Jul-04 13:31N 40°35' E 014°22'0 0.0
2015-Jul-04 12:10N 40°35' E 014°22'0 0.0
2015-Jul-04 11:33N 40°35' E 014°22'1 1.1
2015-Jul-04 10:15N 40°34' E 014°21'5 5.3
2015-Jul-04 09:16N 40°32' E 014°14'0 0.0
2015-Jul-04 08:31N 40°32' E 014°14'0 0.0
2015-Jul-04 05:31N 40°32' E 014°14'0 0.0
2015-Jul-04 02:31N 40°32' E 014°14'0 0.0
2015-Jul-04 01:31N 40°32' E 014°14'0 0.0
2015-Jul-04 00:31N 40°32' E 014°14'0 0.0
2015-Jul-03 23:10N 40°32' E 014°14'0 0.0
2015-Jul-03 15:28N 40°32' E 014°14'0 0.0
2015-Jul-03 14:19N 40°32' E 014°14'4 1.1
2015-Jul-03 10:33N 40°35' E 014°18'5 5.0
2015-Jul-03 09:31N 40°38' E 014°23'0 0.0
2015-Jul-03 08:19N 40°38' E 014°23'0 0.0
2015-Jul-03 07:31N 40°38' E 014°23'0 0.0
2015-Jul-03 06:28N 40°38' E 014°23'0 0.0
2015-Jul-03 05:22N 40°38' E 014°23'0 0.0
2015-Jul-03 04:31N 40°38' E 014°23'0 0.0
2015-Jul-03 03:31N 40°38' E 014°23'0 0.0
2015-Jul-03 02:19N 40°38' E 014°23'0 0.0
2015-Jul-03 01:31N 40°38' E 014°23'0 0.0
2015-Jul-03 00:25N 40°38' E 014°23'0 0.0
2015-Jul-02 23:28N 40°38' E 014°23'0 0.0
2015-Jul-02 22:28N 40°38' E 014°23'0 0.0
2015-Jul-02 21:31N 40°38' E 014°23'0 0.0
2015-Jul-02 20:22N 40°38' E 014°23'0 0.0
2015-Jul-02 19:33N 40°38' E 014°23'0 0.0
2015-Jul-02 18:33N 40°38' E 014°23'5 4.5
2015-Jul-02 17:33N 40°42' E 014°20'9 2.7
2015-Jul-02 14:17N 40°50' E 014°14'0 0.0
2015-Jul-02 13:32N 40°50' E 014°14'0 0.0
2015-Jul-02 12:29N 40°50' E 014°14'0 0.0
2015-Jul-02 11:32N 40°50' E 014°14'0 0.0
2015-Jul-01 12:29N 40°50' E 014°14'0 0.0
2015-Jul-01 11:32N 40°50' E 014°14'0 0.0
2015-Jul-01 10:32N 40°50' E 014°14'1 0.0
2015-Jun-29 16:33N 40°49' E 014°15'1010.3
2015-Jun-29 15:33N 40°40' E 014°21'2 1.1
2015-Jun-29 13:28N 40°38' E 014°23'0 0.0
2015-Jun-29 11:04N 40°38' E 014°23'0 0.0
2015-Jun-29 10:25N 40°38' E 014°23'0 0.0
2015-Jun-29 09:22N 40°38' E 014°23'0 0.0
2015-Jun-29 08:19N 40°38' E 014°23'5 6.2
2015-Jun-29 07:28N 40°43' E 014°20'8 7.8
2015-Jun-29 06:30N 40°49' E 014°14'0 0.2
2015-Jun-29 05:33N 40°49' E 014°14'9 9.1
2015-Jun-29 04:33N 40°41' E 014°20'4 3.1
2015-Jun-29 03:19N 40°38' E 014°23'0 0.0
2015-Jun-29 02:31N 40°38' E 014°23'0 0.0
2015-Jun-29 01:31N 40°38' E 014°23'0 0.0
2015-Jun-29 00:16N 40°38' E 014°23'0 0.0
2015-Jun-28 23:31N 40°38' E 014°23'0 0.0
2015-Jun-28 22:31N 40°38' E 014°23'0 0.0
2015-Jun-28 21:25N 40°38' E 014°23'0 0.0
2015-Jun-28 20:25N 40°38' E 014°23'0 0.0
2015-Jun-28 19:31N 40°38' E 014°23'0 0.0
2015-Jun-28 18:28N 40°38' E 014°23'3 3.8
2015-Jun-28 17:33N 40°37' E 014°19'8 7.2
2015-Jun-28 16:27N 40°37' E 014°29'1 0.2
2015-Jun-28 14:14N 40°37' E 014°30'1 0.5
2015-Jun-28 11:20N 40°36' E 014°29'1012.3
2015-Jun-28 10:33N 40°32' E 014°17'2 0.0
2015-Jun-26 11:25N 40°32' E 014°15'7 7.9
2015-Jun-26 10:33N 40°39' E 014°16'1010.0
2015-Jun-26 09:33N 40°49' E 014°15'  

Dump ship's entire track history